createdAt,value
2023-03-22T00:04:41.847Z,6.22
2023-03-22T00:10:15.940Z,6.38
2023-03-22T00:15:21.642Z,6.47
2023-03-22T00:20:31.078Z,6.22
2023-03-22T00:25:39.086Z,6.97
2023-03-22T00:30:57.841Z,7.28
2023-03-22T00:36:16.753Z,6.10
2023-03-22T01:06:17.060Z,5.82
2023-03-22T02:12:14.186Z,5.82
2023-03-22T02:24:47.584Z,5.75
2023-03-22T02:36:17.573Z,4.82
2023-03-22T03:10:18.621Z,5.63
2023-03-22T03:21:28.350Z,5.85
2023-03-22T03:27:17.702Z,5.13
2023-03-22T03:33:14.433Z,5.65
2023-03-22T03:38:42.461Z,6.22
2023-03-22T03:43:52.173Z,6.43
2023-03-22T04:01:02.826Z,5.28
2023-03-22T06:25:27.846Z,7.20
2023-03-22T06:31:18.810Z,6.82
2023-03-22T08:45:34.217Z,8.80
2023-03-22T08:56:04.750Z,8.27
2023-03-22T09:01:10.781Z,7.30
2023-03-22T09:06:17.537Z,6.93
2023-03-22T09:29:30.980Z,6.43
2023-03-22T09:35:23.688Z,7.85
2023-03-22T10:04:11.336Z,5.78
2023-03-22T10:09:27.539Z,5.53
2023-03-22T10:14:36.252Z,5.55
2023-03-22T10:19:53.236Z,6.10
2023-03-22T10:24:58.926Z,5.93
2023-03-22T10:30:08.456Z,6.55
2023-03-22T10:35:20.183Z,6.47
2023-03-22T10:40:29.402Z,5.63
2023-03-22T10:45:37.841Z,5.72
2023-03-22T10:50:48.099Z,5.78
2023-03-22T10:55:53.659Z,6.13
2023-03-22T11:01:02.041Z,6.13
2023-03-22T11:06:14.115Z,5.30
2023-03-22T11:11:27.571Z,6.85
2023-03-22T11:16:34.656Z,5.90
2023-03-22T11:21:46.047Z,5.07
2023-03-22T11:27:06.827Z,6.03
2023-03-22T11:32:25.073Z,4.88
2023-03-22T11:37:33.351Z,5.22
2023-03-22T11:42:39.246Z,5.72
2023-03-22T11:47:45.726Z,4.82
2023-03-22T11:52:54.523Z,6.57
2023-03-22T11:57:59.855Z,5.40
2023-03-22T12:03:10.297Z,5.28
2023-03-22T12:08:24.833Z,5.07
2023-03-22T12:13:34.475Z,3.97
2023-03-22T12:18:44.858Z,4.68
2023-03-22T12:23:52.793Z,4.57
2023-03-22T12:29:01.301Z,5.32
2023-03-22T12:34:10.168Z,4.10
2023-03-22T12:39:27.203Z,3.85
2023-03-22T12:44:36.064Z,3.33
2023-03-22T12:49:44.938Z,4.05
2023-03-22T12:54:54.393Z,3.03
2023-03-22T13:00:02.688Z,3.63
2023-03-22T13:05:10.818Z,3.20
2023-03-22T13:10:50.318Z,2.92
2023-03-22T13:16:05.303Z,3.30
2023-03-22T13:21:16.613Z,3.63
2023-03-22T13:26:37.338Z,3.72
2023-03-22T13:31:47.989Z,3.78
2023-03-22T13:36:56.518Z,4.20
2023-03-22T13:42:11.942Z,3.47
2023-03-22T13:47:35.960Z,3.28
2023-03-22T13:52:44.769Z,5.20
2023-03-22T13:58:02.957Z,3.75
2023-03-22T14:03:21.124Z,3.88
2023-03-22T14:08:30.873Z,3.42
2023-03-22T14:13:43.629Z,3.42
2023-03-22T14:18:52.145Z,3.38
2023-03-22T14:55:01.576Z,2.60
2023-03-22T15:00:38.035Z,3.30
2023-03-22T15:05:47.308Z,2.53
2023-03-22T15:10:55.010Z,2.30
2023-03-22T15:16:05.397Z,2.30
2023-03-22T15:21:15.029Z,2.50
2023-03-22T15:26:23.360Z,2.25
2023-03-22T15:31:34.511Z,2.05
2023-03-22T15:36:41.134Z,1.83
2023-03-22T15:41:50.521Z,2.10
2023-03-22T15:47:03.100Z,2.17
2023-03-22T15:52:14.408Z,4.05
2023-03-22T15:57:24.501Z,2.67
2023-03-22T16:02:35.599Z,2.65
2023-03-22T16:07:42.673Z,2.10
2023-03-22T16:12:48.727Z,2.55
2023-03-22T16:17:57.633Z,1.77
2023-03-22T16:23:05.058Z,2.42
2023-03-22T16:28:11.720Z,2.00
2023-03-22T16:33:21.619Z,4.25
2023-03-22T16:38:29.144Z,5.45
2023-03-22T16:43:35.157Z,6.13
2023-03-22T16:48:44.108Z,5.18
2023-03-22T16:53:50.246Z,4.85
2023-03-22T16:58:56.820Z,3.45
2023-03-22T17:04:06.542Z,5.70
2023-03-22T17:09:12.850Z,5.05
2023-03-22T17:14:18.774Z,4.03
2023-03-22T17:19:28.771Z,31.25
2023-03-22T17:24:34.963Z,23.25
2023-03-22T17:29:42.119Z,26.52
2023-03-22T17:34:56.015Z,16.50
2023-03-22T17:45:28.417Z,44.08
2023-03-22T17:50:37.397Z,156.32
2023-03-22T18:00:56.577Z,203.40
2023-03-22T18:06:07.968Z,18.60
2023-03-22T18:11:17.989Z,20.02
2023-03-22T18:16:24.362Z,118.55
2023-03-22T18:22:03.322Z,119.18
2023-03-22T18:33:33.521Z,79.30
2023-03-22T18:39:34.118Z,49.72
2023-03-22T19:00:58.437Z,26.13
2023-03-22T19:23:51.363Z,27.30
2023-03-22T19:36:18.865Z,18.30
2023-03-22T19:47:58.243Z,17.77
2023-03-22T19:59:40.172Z,15.25
2023-03-22T20:04:49.803Z,61.15
2023-03-22T20:10:16.929Z,45.85
2023-03-22T20:15:26.931Z,42.25
2023-03-22T20:20:38.654Z,36.95
2023-03-22T20:26:08.778Z,32.65
2023-03-22T20:32:03.982Z,24.83
2023-03-22T20:37:20.894Z,22.00
2023-03-22T20:43:05.990Z,22.60
2023-03-22T20:48:15.141Z,22.33
2023-03-22T20:53:23.782Z,18.50
2023-03-22T20:58:50.368Z,11.65
2023-03-22T21:04:01.945Z,11.88
2023-03-22T21:09:19.692Z,12.32
2023-03-22T21:14:41.908Z,10.15
2023-03-22T21:19:57.849Z,16.30
2023-03-22T21:25:04.733Z,15.40
2023-03-22T21:30:16.873Z,22.70
2023-03-22T21:35:40.083Z,25.13
2023-03-22T21:40:51.197Z,22.50
2023-03-22T21:46:27.352Z,17.98
2023-03-22T21:51:37.769Z,13.55
2023-03-22T21:56:54.351Z,14.05
2023-03-22T22:02:07.673Z,12.77
2023-03-22T22:07:31.574Z,12.88
2023-03-22T22:43:47.735Z,14.60
2023-03-22T22:49:06.376Z,13.88
2023-03-22T22:54:20.200Z,14.38
2023-03-22T23:05:05.953Z,15.73
2023-03-22T23:10:22.978Z,15.43
2023-03-22T23:26:57.630Z,15.20
2023-03-22T23:32:24.430Z,13.82
2023-03-22T23:42:49.344Z,12.85
2023-03-22T23:48:02.175Z,13.10
2023-03-22T23:53:10.736Z,13.90
2023-03-22T23:58:16.454Z,12.60
